createdAt,value
2022-12-23T00:01:49.802Z,7.40
2022-12-23T00:04:16.619Z,7.40
2022-12-23T00:06:43.299Z,7.40
2022-12-23T00:09:09.928Z,7.50
2022-12-23T00:11:36.611Z,7.40
2022-12-23T00:14:22.251Z,7.50
2022-12-23T00:16:50.323Z,7.50
2022-12-23T00:19:17.189Z,7.50
2022-12-23T00:21:43.822Z,7.50
2022-12-23T00:24:11.446Z,7.50
2022-12-23T00:26:38.329Z,7.50
2022-12-23T00:29:05.022Z,7.50
2022-12-23T00:31:31.683Z,7.60
2022-12-23T00:33:58.469Z,7.60
2022-12-23T00:36:27.625Z,7.60
2022-12-23T00:39:13.619Z,7.60
2022-12-23T00:41:59.285Z,7.70
2022-12-23T00:44:26.439Z,7.70
2022-12-23T00:46:53.250Z,7.70
2022-12-23T00:49:39.320Z,7.80
2022-12-23T00:52:07.255Z,7.80
2022-12-23T00:54:34.033Z,7.80
2022-12-23T00:57:00.695Z,7.90
2022-12-23T00:59:27.556Z,7.90
2022-12-23T01:02:13.118Z,7.90
2022-12-23T01:04:58.657Z,7.90
2022-12-23T01:07:25.590Z,7.90
2022-12-23T01:09:52.266Z,7.90
2022-12-23T01:12:18.928Z,7.90
2022-12-23T01:14:45.849Z,8.00
2022-12-23T01:17:12.597Z,8.00
2022-12-23T01:19:39.574Z,8.10
2022-12-23T01:22:06.257Z,8.10
2022-12-23T01:24:33.161Z,8.10
2022-12-23T01:27:00.203Z,8.10
2022-12-23T01:29:27.300Z,8.20
2022-12-23T01:31:54.000Z,8.20
2022-12-23T01:34:20.753Z,8.20
2022-12-23T01:36:47.448Z,8.30
2022-12-23T01:39:14.121Z,8.30
2022-12-23T01:41:59.636Z,8.20
2022-12-23T01:44:44.892Z,8.30
2022-12-23T01:47:14.340Z,8.20
2022-12-23T01:49:41.793Z,8.20
2022-12-23T01:52:08.758Z,8.20
2022-12-23T01:54:36.325Z,8.20
2022-12-23T01:57:03.373Z,8.20
2022-12-23T01:59:48.657Z,8.20
2022-12-23T02:02:33.883Z,8.20
2022-12-23T02:05:00.640Z,8.20
2022-12-23T02:07:46.619Z,8.20
2022-12-23T02:10:13.384Z,8.20
2022-12-23T02:12:47.362Z,8.20
2022-12-23T02:15:41.857Z,8.10
2022-12-23T02:18:27.248Z,8.10
2022-12-23T02:21:12.921Z,8.10
2022-12-23T02:23:58.614Z,8.10
2022-12-23T02:26:51.017Z,8.10
2022-12-23T02:29:20.806Z,8.10
2022-12-23T02:32:06.412Z,8.10
2022-12-23T02:34:40.519Z,8.10
2022-12-23T02:37:19.323Z,8.10
2022-12-23T02:39:50.501Z,8.10
2022-12-23T02:42:31.920Z,8.10
2022-12-23T02:45:09.584Z,8.10
2022-12-23T02:47:39.406Z,8.00
2022-12-23T02:50:09.451Z,8.00
2022-12-23T02:52:36.787Z,8.00
2022-12-23T02:55:06.668Z,8.10
2022-12-23T02:57:35.904Z,8.10
2022-12-23T03:00:03.497Z,8.10
2022-12-23T03:02:31.871Z,8.20
2022-12-23T03:05:00.968Z,8.20
2022-12-23T03:07:32.993Z,8.20
2022-12-23T03:10:02.374Z,8.20
2022-12-23T03:12:38.860Z,8.20
2022-12-23T03:15:11.683Z,8.30
2022-12-23T03:17:46.276Z,8.40
2022-12-23T03:20:17.506Z,8.40
2022-12-23T03:22:57.034Z,8.40
2022-12-23T03:25:35.699Z,8.40
2022-12-23T03:28:23.459Z,8.40
2022-12-23T03:30:52.830Z,8.40
2022-12-23T03:33:22.707Z,8.50
2022-12-23T03:35:52.795Z,8.50
2022-12-23T03:38:19.876Z,8.50
2022-12-23T03:40:52.680Z,8.60
2022-12-23T03:43:25.486Z,8.60
2022-12-23T03:45:58.548Z,8.60
2022-12-23T03:48:43.129Z,8.60
2022-12-23T03:51:18.383Z,8.60
2022-12-23T03:53:54.606Z,8.70
2022-12-23T03:56:28.785Z,8.70
2022-12-23T03:59:00.616Z,8.70
2022-12-23T04:01:30.465Z,8.70
2022-12-23T04:03:57.322Z,8.70
2022-12-23T04:06:25.269Z,8.70
2022-12-23T04:08:52.456Z,8.70
2022-12-23T04:11:19.563Z,8.70
2022-12-23T04:13:47.311Z,8.70
2022-12-23T04:16:14.314Z,8.60
2022-12-23T04:18:41.015Z,8.60
2022-12-23T04:21:07.832Z,8.60
2022-12-23T04:23:34.560Z,8.60
2022-12-23T04:26:01.236Z,8.60
2022-12-23T04:28:28.014Z,8.60
2022-12-23T04:30:54.907Z,8.60
2022-12-23T04:33:21.626Z,8.50
2022-12-23T04:35:48.311Z,8.50
2022-12-23T04:38:15.138Z,8.50
2022-12-23T04:40:45.209Z,8.50
2022-12-23T04:43:11.894Z,8.40
2022-12-23T04:45:38.511Z,8.40
2022-12-23T04:48:05.282Z,8.40
2022-12-23T04:50:31.952Z,8.40
2022-12-23T04:52:58.638Z,8.40
2022-12-23T04:55:25.429Z,8.40
2022-12-23T04:57:52.082Z,8.40
2022-12-23T05:00:18.931Z,8.40
2022-12-23T05:02:46.007Z,8.40
2022-12-23T05:05:12.754Z,8.40
2022-12-23T05:07:39.391Z,8.40
2022-12-23T05:10:06.239Z,8.40
2022-12-23T05:12:32.887Z,8.40
2022-12-23T05:14:59.558Z,8.40
2022-12-23T05:17:26.194Z,8.40
2022-12-23T05:19:52.860Z,8.40
2022-12-23T05:22:19.553Z,8.30
2022-12-23T05:24:46.169Z,8.30
2022-12-23T05:27:12.836Z,8.30
2022-12-23T05:29:39.845Z,8.30
2022-12-23T05:32:06.544Z,8.30
2022-12-23T05:34:33.307Z,8.30
2022-12-23T05:37:00.008Z,8.20
2022-12-23T05:39:26.837Z,8.20
2022-12-23T05:41:53.495Z,8.20
2022-12-23T05:44:20.361Z,8.20
2022-12-23T05:46:47.008Z,8.20
2022-12-23T05:49:13.744Z,8.20
2022-12-23T05:51:40.443Z,8.20
2022-12-23T05:54:07.174Z,8.10
2022-12-23T05:56:33.846Z,8.20
2022-12-23T05:59:00.694Z,8.20
2022-12-23T06:01:27.475Z,8.20
2022-12-23T06:03:54.365Z,8.20
2022-12-23T06:06:21.016Z,8.20
2022-12-23T06:08:47.817Z,8.20
2022-12-23T06:11:14.509Z,8.20
2022-12-23T06:13:41.184Z,8.20
2022-12-23T06:16:07.881Z,8.10
2022-12-23T06:18:34.737Z,8.20
2022-12-23T06:21:01.632Z,8.20
2022-12-23T06:23:28.242Z,8.30
2022-12-23T06:25:58.902Z,8.30
2022-12-23T06:28:25.532Z,8.30
2022-12-23T06:30:52.998Z,8.40
2022-12-23T06:33:19.752Z,8.40
2022-12-23T06:35:46.499Z,8.40
2022-12-23T06:38:13.129Z,8.40
2022-12-23T06:40:40.276Z,8.50
2022-12-23T06:43:07.212Z,8.50
2022-12-23T06:45:33.886Z,8.50
2022-12-23T06:48:01.156Z,8.50
2022-12-23T06:50:27.785Z,8.50
2022-12-23T06:52:54.488Z,8.50
2022-12-23T06:55:21.345Z,8.50
2022-12-23T06:57:47.996Z,8.50
2022-12-23T07:00:15.015Z,8.50
2022-12-23T07:02:41.738Z,8.50
2022-12-23T07:05:08.775Z,8.50
2022-12-23T07:07:35.775Z,8.50
2022-12-23T07:10:02.633Z,8.60
2022-12-23T07:12:29.332Z,8.60
2022-12-23T07:14:55.996Z,8.60
2022-12-23T07:17:23.007Z,8.60
2022-12-23T07:19:49.670Z,8.60
2022-12-23T07:22:16.354Z,8.70
2022-12-23T07:24:42.986Z,8.60
2022-12-23T07:27:09.792Z,8.70
2022-12-23T07:29:36.486Z,8.70
2022-12-23T07:32:04.302Z,8.70
2022-12-23T07:34:31.059Z,8.70
2022-12-23T07:36:57.775Z,8.70
2022-12-23T07:39:24.435Z,8.70
2022-12-23T07:42:09.070Z,8.80
2022-12-23T07:44:37.988Z,8.80
2022-12-23T07:47:04.668Z,8.80
2022-12-23T07:49:31.371Z,8.80
2022-12-23T07:51:58.201Z,8.80
2022-12-23T07:54:24.889Z,8.80
2022-12-23T07:56:51.588Z,8.80
2022-12-23T07:59:18.247Z,8.80
2022-12-23T08:01:45.036Z,8.80
2022-12-23T08:04:11.826Z,8.80
2022-12-23T08:06:38.537Z,8.90
2022-12-23T08:09:07.051Z,8.90
2022-12-23T08:11:34.005Z,8.90
2022-12-23T08:14:00.652Z,9.00
2022-12-23T08:16:27.330Z,9.10
2022-12-23T08:18:54.054Z,9.20
2022-12-23T08:21:20.753Z,9.20
2022-12-23T08:23:48.281Z,9.20
2022-12-23T08:26:17.381Z,9.20
2022-12-23T08:28:44.968Z,9.30
2022-12-23T08:31:19.606Z,9.30
2022-12-23T08:33:48.092Z,9.40
2022-12-23T08:36:19.201Z,9.80
2022-12-23T08:38:49.651Z,10.90
2022-12-23T08:41:17.513Z,11.80
2022-12-23T08:43:44.693Z,12.10
2022-12-23T08:46:11.577Z,12.10
2022-12-23T08:48:41.438Z,12.60
2022-12-23T08:51:12.297Z,12.90
2022-12-23T08:53:39.527Z,12.50
2022-12-23T08:56:11.672Z,12.00
2022-12-23T08:58:39.816Z,11.70
2022-12-23T09:01:07.416Z,11.50
2022-12-23T09:03:34.872Z,11.20
2022-12-23T09:06:15.508Z,10.80
2022-12-23T09:08:42.770Z,10.60
2022-12-23T09:11:13.045Z,10.40
2022-12-23T09:13:40.526Z,10.20
2022-12-23T09:16:07.909Z,10.10
2022-12-23T09:18:35.087Z,9.90
2022-12-23T09:21:03.354Z,9.80
2022-12-23T09:23:30.511Z,9.80
2022-12-23T09:25:57.824Z,9.90
2022-12-23T09:28:24.795Z,9.90
2022-12-23T09:30:51.987Z,10.00
2022-12-23T09:33:19.708Z,10.00
2022-12-23T09:35:46.656Z,10.10
2022-12-23T09:38:13.395Z,10.10
2022-12-23T09:40:41.673Z,10.20
2022-12-23T09:43:14.596Z,10.20
2022-12-23T09:46:00.392Z,10.20
2022-12-23T09:48:30.820Z,10.20
2022-12-23T09:50:57.471Z,10.20
2022-12-23T09:53:35.332Z,10.20
2022-12-23T09:56:08.275Z,10.10
2022-12-23T09:58:50.859Z,10.10
2022-12-23T10:01:42.987Z,10.00
2022-12-23T10:04:14.622Z,10.00
2022-12-23T10:06:41.557Z,10.00
2022-12-23T10:09:09.685Z,10.10
2022-12-23T10:11:39.767Z,10.40
2022-12-23T10:14:27.595Z,10.70
2022-12-23T10:17:00.173Z,10.90
2022-12-23T10:19:42.046Z,10.90
2022-12-23T10:22:15.726Z,10.90
2022-12-23T10:24:44.121Z,10.80
2022-12-23T10:27:27.202Z,10.60
2022-12-23T10:29:53.849Z,10.50
2022-12-23T10:32:28.957Z,10.40
2022-12-23T10:34:55.652Z,10.40
2022-12-23T10:37:27.882Z,10.50
2022-12-23T10:40:13.444Z,10.50
2022-12-23T10:42:54.019Z,10.60
2022-12-23T10:45:39.851Z,10.60
2022-12-23T10:48:14.614Z,10.50
2022-12-23T10:50:49.832Z,10.40
2022-12-23T10:53:29.023Z,10.40
2022-12-23T10:55:57.265Z,10.30
2022-12-23T10:58:24.547Z,10.30
2022-12-23T11:00:53.504Z,10.30
2022-12-23T11:03:23.993Z,10.30
2022-12-23T11:05:52.687Z,10.50
2022-12-23T11:08:23.540Z,10.60
2022-12-23T11:10:50.376Z,10.80
2022-12-23T11:13:34.696Z,10.80
2022-12-23T11:16:20.450Z,10.80
2022-12-23T11:19:03.135Z,10.70
2022-12-23T11:21:30.980Z,10.60
2022-12-23T11:24:06.669Z,10.50
2022-12-23T11:26:33.624Z,10.40
2022-12-23T11:29:04.756Z,10.30
2022-12-23T11:31:35.591Z,10.30
2022-12-23T11:34:04.941Z,10.30
2022-12-23T11:36:32.425Z,10.40
2022-12-23T11:39:02.276Z,10.40
2022-12-23T11:41:33.842Z,10.50
2022-12-23T11:44:03.317Z,10.50
2022-12-23T11:46:32.605Z,10.50
2022-12-23T11:49:18.220Z,10.50
2022-12-23T11:51:46.630Z,10.50
2022-12-23T11:54:17.535Z,10.50
2022-12-23T11:56:44.430Z,10.50
2022-12-23T11:59:28.474Z,10.60
2022-12-23T12:01:57.529Z,10.50
2022-12-23T12:04:25.247Z,10.60
2022-12-23T12:06:56.569Z,10.60
2022-12-23T12:09:24.091Z,10.70
2022-12-23T12:11:53.318Z,10.80
2022-12-23T12:14:21.975Z,10.70
2022-12-23T12:16:48.662Z,10.80
2022-12-23T12:19:20.769Z,10.70
2022-12-23T12:21:49.334Z,10.60
2022-12-23T12:24:22.512Z,10.60
2022-12-23T12:26:51.569Z,10.50
2022-12-23T12:29:35.175Z,10.50
2022-12-23T12:32:01.974Z,10.50
2022-12-23T12:34:40.599Z,10.40
2022-12-23T12:37:23.631Z,10.40
2022-12-23T12:40:13.560Z,10.30
2022-12-23T12:42:41.071Z,10.30
2022-12-23T12:45:19.787Z,10.30
2022-12-23T12:48:16.075Z,10.20
2022-12-23T12:50:53.997Z,10.20
2022-12-23T12:53:22.104Z,10.10
2022-12-23T12:55:52.295Z,10.10
2022-12-23T12:58:20.299Z,10.10
2022-12-23T13:01:02.538Z,10.10
2022-12-23T13:03:29.162Z,10.00
2022-12-23T13:05:59.705Z,10.00
2022-12-23T13:08:33.552Z,10.00
2022-12-23T13:11:05.592Z,10.00
2022-12-23T13:13:47.660Z,9.90
2022-12-23T13:16:17.682Z,9.90
2022-12-23T13:19:01.800Z,9.90
2022-12-23T13:21:41.492Z,9.90
2022-12-23T13:24:15.355Z,9.90
2022-12-23T13:27:00.802Z,9.90
2022-12-23T13:29:44.252Z,9.90
2022-12-23T13:32:22.146Z,9.90
2022-12-23T13:34:58.017Z,9.90
2022-12-23T13:37:44.882Z,9.90
2022-12-23T13:40:14.570Z,9.80
2022-12-23T13:42:44.807Z,9.80
2022-12-23T13:45:16.408Z,9.80
2022-12-23T13:47:49.096Z,9.80
2022-12-23T13:50:20.263Z,9.70
2022-12-23T13:52:52.978Z,9.70
2022-12-23T13:55:22.646Z,9.70
2022-12-23T13:57:56.799Z,9.70
2022-12-23T14:00:28.381Z,9.60
2022-12-23T14:02:58.174Z,9.60
2022-12-23T14:05:32.215Z,9.60
2022-12-23T14:07:59.672Z,9.60
2022-12-23T14:10:26.656Z,9.60
2022-12-23T14:12:58.734Z,9.70
2022-12-23T14:15:31.725Z,9.60
2022-12-23T14:18:04.475Z,9.60
2022-12-23T14:20:39.230Z,9.60
2022-12-23T14:23:13.330Z,9.50
2022-12-23T14:25:51.513Z,9.50
2022-12-23T14:28:29.018Z,9.40
2022-12-23T14:30:56.012Z,9.30
2022-12-23T14:33:24.083Z,9.30
2022-12-23T14:35:52.661Z,9.20
2022-12-23T14:38:26.653Z,9.20
2022-12-23T14:40:56.242Z,9.10
2022-12-23T14:43:23.147Z,9.10
2022-12-23T14:45:50.970Z,9.10
2022-12-23T14:48:37.145Z,9.00
2022-12-23T14:51:10.116Z,9.00
2022-12-23T14:53:37.733Z,9.00
2022-12-23T14:56:19.603Z,8.90
2022-12-23T14:58:46.252Z,8.90
2022-12-23T15:01:16.712Z,8.90
2022-12-23T15:03:45.491Z,8.90
2022-12-23T15:06:15.126Z,8.90
2022-12-23T15:08:42.596Z,8.90
2022-12-23T15:11:15.217Z,8.90
2022-12-23T15:13:42.285Z,8.90
2022-12-23T15:16:15.213Z,8.90
2022-12-23T15:18:52.093Z,8.90
2022-12-23T15:21:19.415Z,8.90
2022-12-23T15:23:50.608Z,8.90
2022-12-23T15:26:17.600Z,8.80
2022-12-23T15:28:44.283Z,8.80
2022-12-23T15:31:22.273Z,8.80
2022-12-23T15:34:02.997Z,8.80
2022-12-23T15:36:35.353Z,8.80
2022-12-23T15:39:03.393Z,8.80
2022-12-23T15:41:30.075Z,8.80
2022-12-23T15:43:57.689Z,8.80
2022-12-23T15:46:29.865Z,8.80
2022-12-23T15:48:57.440Z,8.80
2022-12-23T15:51:50.144Z,8.80
2022-12-23T15:54:31.664Z,8.70
2022-12-23T15:56:59.963Z,8.70
2022-12-23T15:59:28.682Z,8.70
2022-12-23T16:01:56.248Z,8.70
2022-12-23T16:04:25.498Z,8.60
2022-12-23T16:06:52.788Z,8.60
2022-12-23T16:09:20.459Z,8.60
2022-12-23T16:11:59.452Z,8.60
2022-12-23T16:14:38.519Z,8.50
2022-12-23T16:17:08.201Z,8.50
2022-12-23T16:19:36.179Z,8.50
2022-12-23T16:22:07.991Z,8.50
2022-12-23T16:24:34.713Z,8.40
2022-12-23T16:27:01.447Z,8.40
2022-12-23T16:29:28.109Z,8.30
2022-12-23T16:32:01.727Z,8.30
2022-12-23T16:34:30.610Z,8.30
2022-12-23T16:36:57.386Z,8.20
2022-12-23T16:39:24.079Z,8.20
2022-12-23T16:41:50.871Z,8.20
2022-12-23T16:44:17.539Z,8.20
2022-12-23T16:46:45.765Z,8.20
2022-12-23T16:49:16.887Z,8.20
2022-12-23T16:51:43.621Z,8.20
2022-12-23T16:54:15.276Z,8.20
2022-12-23T16:56:43.046Z,8.20
2022-12-23T16:59:09.986Z,8.20
2022-12-23T17:01:38.321Z,8.20
2022-12-23T17:04:05.568Z,8.10
2022-12-23T17:06:32.576Z,8.10
2022-12-23T17:08:59.216Z,8.10
2022-12-23T17:11:29.244Z,8.10
2022-12-23T17:14:03.100Z,8.00
2022-12-23T17:16:31.632Z,8.00
2022-12-23T17:18:58.833Z,8.00
2022-12-23T17:21:30.902Z,8.00
2022-12-23T17:24:20.875Z,7.90
2022-12-23T17:26:47.609Z,7.90
2022-12-23T17:29:14.469Z,7.90
2022-12-23T17:31:42.301Z,7.90
2022-12-23T17:34:22.633Z,7.90
2022-12-23T17:36:50.796Z,7.90
2022-12-23T17:39:18.336Z,7.90
2022-12-23T17:41:45.175Z,7.90
2022-12-23T17:44:13.728Z,7.90
2022-12-23T17:46:40.483Z,7.90
2022-12-23T17:49:08.393Z,7.90
2022-12-23T17:51:35.218Z,7.90
2022-12-23T17:54:02.154Z,7.90
2022-12-23T17:56:28.865Z,7.90
2022-12-23T17:58:55.500Z,7.90
2022-12-23T18:01:24.320Z,7.90
2022-12-23T18:03:51.537Z,7.90
2022-12-23T18:06:19.888Z,7.90
2022-12-23T18:08:46.707Z,7.90
2022-12-23T18:11:18.329Z,7.80
2022-12-23T18:13:44.987Z,7.80
2022-12-23T18:16:12.549Z,7.80
2022-12-23T18:18:46.279Z,7.80
2022-12-23T18:21:17.116Z,7.70
2022-12-23T18:23:43.796Z,7.70
2022-12-23T18:26:12.910Z,7.60
2022-12-23T18:28:39.646Z,7.60
2022-12-23T18:31:06.544Z,7.60
2022-12-23T18:33:33.734Z,7.60
2022-12-23T18:36:00.593Z,7.50
2022-12-23T18:38:27.327Z,7.50
2022-12-23T18:40:54.835Z,7.50
2022-12-23T18:43:23.009Z,7.60
2022-12-23T18:45:53.151Z,7.60
2022-12-23T18:48:20.521Z,7.60
2022-12-23T18:50:47.191Z,7.70
2022-12-23T18:53:23.369Z,7.70
2022-12-23T18:55:51.030Z,7.60
2022-12-23T18:58:18.419Z,7.60
2022-12-23T19:00:45.733Z,7.70
2022-12-23T19:03:26.441Z,7.70
2022-12-23T19:05:53.853Z,7.70
2022-12-23T19:08:26.362Z,7.70
2022-12-23T19:10:54.309Z,7.70
2022-12-23T19:13:21.026Z,7.70
2022-12-23T19:15:47.729Z,7.70
2022-12-23T19:18:15.820Z,7.70
2022-12-23T19:20:43.140Z,7.70
2022-12-23T19:23:10.348Z,7.70
2022-12-23T19:25:39.760Z,7.70
2022-12-23T19:28:06.566Z,7.60
2022-12-23T19:30:33.216Z,7.60
2022-12-23T19:32:59.844Z,7.60
2022-12-23T19:35:26.563Z,7.60
2022-12-23T19:37:53.336Z,7.70
2022-12-23T19:40:20.002Z,7.70
2022-12-23T19:42:46.665Z,7.80
2022-12-23T19:45:13.311Z,7.80
2022-12-23T19:47:39.961Z,7.90
2022-12-23T19:50:07.166Z,7.80
2022-12-23T19:52:34.111Z,7.80
2022-12-23T19:55:00.925Z,7.90
2022-12-23T19:57:27.692Z,7.90
2022-12-23T19:59:54.352Z,7.90
2022-12-23T20:02:21.114Z,7.90
2022-12-23T20:04:47.817Z,7.90
2022-12-23T20:07:14.472Z,7.90
2022-12-23T20:09:41.185Z,8.00
2022-12-23T20:12:08.321Z,8.00
2022-12-23T20:14:35.422Z,8.00
2022-12-23T20:17:02.091Z,8.00
2022-12-23T20:19:28.962Z,8.00
2022-12-23T20:21:55.611Z,8.00
2022-12-23T20:24:22.247Z,8.00
2022-12-23T20:26:48.968Z,8.00
2022-12-23T20:29:15.811Z,8.00
2022-12-23T20:31:43.215Z,8.10
2022-12-23T20:34:13.335Z,8.10
2022-12-23T20:36:40.021Z,8.10
2022-12-23T20:39:06.893Z,8.10
2022-12-23T20:41:33.754Z,8.10
2022-12-23T20:44:33.120Z,8.20
2022-12-23T20:46:47.312Z,8.20
2022-12-23T20:49:14.102Z,8.30
2022-12-23T20:51:40.785Z,8.40
2022-12-23T20:54:07.421Z,8.40
2022-12-23T20:56:34.044Z,8.50
2022-12-23T20:59:02.753Z,8.60
2022-12-23T21:01:30.811Z,8.60
2022-12-23T21:03:58.375Z,8.60
2022-12-23T21:06:25.595Z,8.70
2022-12-23T21:08:52.416Z,8.80
2022-12-23T21:11:19.273Z,8.80
2022-12-23T21:13:49.453Z,8.90
2022-12-23T21:16:16.200Z,8.90
2022-12-23T21:18:43.851Z,9.00
2022-12-23T21:21:11.054Z,9.10
2022-12-23T21:23:38.816Z,9.10
2022-12-23T21:26:07.303Z,9.20
2022-12-23T21:28:34.129Z,9.20
2022-12-23T21:31:00.874Z,9.20
2022-12-23T21:33:27.594Z,9.20
2022-12-23T21:35:54.258Z,9.20
2022-12-23T21:38:20.868Z,9.20
2022-12-23T21:40:47.815Z,9.10
2022-12-23T21:43:14.455Z,9.10
2022-12-23T21:45:41.185Z,9.10
2022-12-23T21:48:07.837Z,9.10
2022-12-23T21:50:34.474Z,9.10
2022-12-23T21:53:01.134Z,9.00
2022-12-23T21:55:27.849Z,9.00
2022-12-23T21:57:54.624Z,9.00
2022-12-23T22:00:21.631Z,9.00
2022-12-23T22:02:48.312Z,9.10
2022-12-23T22:05:14.999Z,9.10
2022-12-23T22:07:41.635Z,9.20
2022-12-23T22:10:08.582Z,9.20
2022-12-23T22:12:35.383Z,9.20
2022-12-23T22:15:07.812Z,9.20
2022-12-23T22:17:38.028Z,9.20
2022-12-23T22:20:04.942Z,9.10
2022-12-23T22:22:31.706Z,9.20
2022-12-23T22:24:58.333Z,9.20
2022-12-23T22:27:25.153Z,9.30
2022-12-23T22:29:51.843Z,9.30
2022-12-23T22:32:18.554Z,9.30
2022-12-23T22:34:45.208Z,9.30
2022-12-23T22:37:11.862Z,9.30
2022-12-23T22:39:38.500Z,9.30
2022-12-23T22:42:05.252Z,9.30
2022-12-23T22:44:31.873Z,9.30
2022-12-23T22:46:58.584Z,9.30
2022-12-23T22:49:25.331Z,9.30
2022-12-23T22:51:52.728Z,9.30
2022-12-23T22:54:19.374Z,9.20
2022-12-23T22:56:46.224Z,9.20
2022-12-23T22:59:19.112Z,9.20
2022-12-23T23:01:45.770Z,9.10
2022-12-23T23:04:12.456Z,9.10
2022-12-23T23:06:39.083Z,9.00
2022-12-23T23:09:06.502Z,9.00
2022-12-23T23:11:33.295Z,9.00
2022-12-23T23:14:00.150Z,8.90
2022-12-23T23:16:26.858Z,8.90
2022-12-23T23:18:53.921Z,9.00
2022-12-23T23:21:20.651Z,9.00
2022-12-23T23:23:47.555Z,9.00
2022-12-23T23:26:14.477Z,9.10
2022-12-23T23:28:41.677Z,9.10
2022-12-23T23:33:55.121Z,9.10
2022-12-23T23:36:22.013Z,9.10
2022-12-23T23:38:48.707Z,9.10
2022-12-23T23:41:20.737Z,9.20
2022-12-23T23:43:49.763Z,9.20
2022-12-23T23:46:16.494Z,9.20
2022-12-23T23:48:43.241Z,9.10
2022-12-23T23:51:09.898Z,9.10
2022-12-23T23:53:36.568Z,9.10
2022-12-23T23:56:05.372Z,9.20
2022-12-23T23:58:32.082Z,9.10
